• Join FlightAware (Why Join?)
  • Login
  • US Flag 
08:36PM EST


 

Airport Tracker/Info


-or-


 

Live Flight TrackerFlight Track Log ✈ SWA3121 ✈ 23-Apr-2013 ✈ KHOU - KOKC

Flight Track Log - Related Links

Times and Time Zones

All times are in EDT time to prevent confusion due to time zone crossing. See the SWA3121 flight status page for this flight to view local times or setup timezone preferences in your user account.

Time Position Orientation Groundspeed Altitude Reporting Facility
EDT Latitude Longitude Course Direction KTS MPH feet Rate Location/Type
11:01PM 29.6333 -95.2653 19° North 143 165 700  Level Houston Center
11:02PM 29.6881 -95.2442 19° North 233 268 3,500 2,040 Climbing Houston Center
11:03PM 29.7519 -95.2658 344° North 268 308 5,400 2,400 Climbing Houston Center
11:04PM 29.8275 -95.3031 337° Northwest 291 335 8,600 2,700 Climbing Houston Center
11:05PM 29.9089 -95.3433 337° Northwest 311 358 10,900 2,940 Climbing Houston Center
11:06PM 30.0267 -95.4028 336° Northwest 378 435 14,600 3,660 Climbing Houston Center
11:07PM 30.1286 -95.4519 337° Northwest 395 455 18,300 3,420 Climbing Houston Center
11:08PM 30.2306 -95.5019 337° Northwest 398 458 21,500 2,700 Climbing Houston Center
11:09PM 30.3358 -95.5556 336° Northwest 410 472 23,800 2,400 Climbing Houston Center
11:10PM 30.4458 -95.6086 337° Northwest 425 489 26,400 2,340 Climbing Houston Center
11:11PM 30.5558 -95.6633 337° Northwest 430 495 28,600 2,160 Climbing Houston Center
11:12PM 30.6667 -95.7236 335° Northwest 438 504 30,800 2,280 Climbing Houston Center
11:13PM 30.7908 -95.7903 335° Northwest 434 499 33,300 2,160 Climbing Houston Center
11:14PM 30.8978 -95.8472 335° Northwest 423 487 35,200 1,680 Climbing Houston Center
11:15PM 31.0058 -95.9033 336° Northwest 422 486 36,800 1,620 Climbing Houston Center
11:16PM 31.1125 -95.9611 335° Northwest 421 484 38,500 1,560 Climbing Houston Center
11:16PM 31.1444 -95.9739 341° North 417 480 38,900 1,140 Climbing Fort Worth Center
11:17PM 31.2536 -96.0161 342° North 417 480 40,000 540 Climbing Fort Worth Center
11:18PM 31.3564 -96.0558 342° North 417 480 40,000  Level Fort Worth Center
11:19PM 31.4694 -96.1006 341° North 423 487 40,000  Level Fort Worth Center
11:20PM 31.5806 -96.1453 341° North 423 487 40,000  Level Fort Worth Center
11:21PM 31.6958 -96.1900 342° North 423 487 40,000  Level Fort Worth Center
11:22PM 31.8092 -96.2350 341° North 425 489 40,000  Level Fort Worth Center
11:23PM 31.9306 -96.2875 340° North 425 489 40,000  Level Fort Worth Center
11:24PM 32.0481 -96.3275 344° North 430 495 40,000  Level Fort Worth Center
11:25PM 32.1589 -96.3753 340° North 425 489 40,000  Level Fort Worth Center
11:26PM 32.2761 -96.4158 344° North 430 495 40,000  Level Fort Worth Center
11:27PM 32.3914 -96.4611 342° North 430 495 40,000  Level Fort Worth Center
11:28PM 32.5044 -96.5044 342° North 430 495 40,000  Level Fort Worth Center
11:29PM 32.6217 -96.5475 343° North 430 495 40,000  Level Fort Worth Center
11:30PM 32.7222 -96.5861 342° North 430 495 40,000  Level Fort Worth Center
11:31PM 32.8394 -96.6322 342° North 430 495 40,000  Level Fort Worth Center
11:32PM 32.9564 -96.6756 343° North 430 495 40,000  Level Fort Worth Center
11:33PM 33.0736 -96.7217 342° North 430 495 40,000  Level Fort Worth Center
11:34PM 33.1908 -96.7656 343° North 430 495 40,000  Level Fort Worth Center
11:35PM 33.3100 -96.8119 342° North 440 506 40,000  Level Fort Worth Center
11:36PM 33.4292 -96.8583 342° North 445 512 40,000  Level Fort Worth Center
11:37PM 33.5442 -96.9050 341° North 439 505 40,000 -120 Level Fort Worth Center
11:38PM 33.6611 -96.9519 342° North 439 505 39,800 -1,380 Descending Fort Worth Center
11:39PM 33.7742 -96.9961 342° North 433 498 37,300 -2,400 Descending Fort Worth Center
11:40PM 33.8828 -97.0381 342° North 419 482 35,100 -3,240 Descending Fort Worth Center
11:41PM 34.0103 -97.0903 341° North 425 489 30,900 -4,080 Descending Fort Worth Center
11:42PM 34.1147 -97.1325 341° North 438 504 27,000 -3,900 Descending Fort Worth Center
11:43PM 34.2358 -97.1825 341° North 444 511 23,100 -2,580 Descending Fort Worth Center
11:44PM 34.3506 -97.2222 344° North 444 511 21,900 -1,920 Descending Fort Worth Center
11:45PM 34.4611 -97.2625 343° North 426 490 19,300 -2,700 Descending Fort Worth Center
11:46PM 34.5678 -97.3000 344° North 409 471 16,600 -2,880 Descending Fort Worth Center
11:47PM 34.6719 -97.3403 342° North 397 457 13,600 -3,180 Descending Fort Worth Center
11:48PM 34.7431 -97.3656 344° North 387 445 11,700 -2,460 Descending Fort Worth Center
11:48PM 34.7742 -97.3756 345° North 392 451 11,100 -540 Descending Fort Worth Center
11:49PM 34.8597 -97.4136 340° North 363 418 11,000 -780 Descending Fort Worth Center
11:50PM 34.9369 -97.4439 342° North 319 367 9,600 -1,200 Descending Fort Worth Center
11:51PM 35.0100 -97.4744 341° North 291 335 8,600 -1,260 Descending Fort Worth Center
11:52PM 35.0786 -97.5022 342° North 271 312 7,100 -1,500 Descending Fort Worth Center
11:53PM 35.1414 -97.5278 342° North 250 288 5,600 -1,500 Descending Fort Worth Center
11:54PM 35.2017 -97.5533 341° North 238 274 4,100 -1,260 Descending Fort Worth Center
11:55PM 35.2581 -97.5761 342° North 223 257 3,100 -660 Descending Fort Worth Center
11:56PM 35.2975 -97.5917 342° North 187 215 2,800 -480 Descending Fort Worth Center
11:57PM 35.3331 -97.5917 360° North 143 165 2,200 -600 Descending Fort Worth Center
11:58PM 35.3644 -97.5917 360° North 121 139 1,600 -480 Descending Fort Worth Center
11:59PM 35.3997 -97.5944 356° North 116 133 1,300 -300 Descending Fort Worth Center